createdAt,value
2017-03-18T00:00:23.439Z,1.36
2017-03-18T00:01:33.382Z,1.4
2017-03-18T00:02:43.642Z,1.32
2017-03-18T00:03:53.924Z,1.32
2017-03-18T00:05:04.181Z,1.28
2017-03-18T00:06:14.438Z,1.27
2017-03-18T00:07:24.701Z,1.21
2017-03-18T00:08:34.953Z,1.21
2017-03-18T00:09:45.215Z,1.21
2017-03-18T00:10:55.816Z,1.16
2017-03-18T00:12:06.069Z,1.13
2017-03-18T00:13:16.330Z,1.14
2017-03-18T00:14:26.599Z,1.09
2017-03-18T00:15:36.546Z,1.04
2017-03-18T00:16:46.484Z,1
2017-03-18T00:17:56.746Z,0.95
2017-03-18T00:19:06.690Z,0.95
2017-03-18T00:20:16.950Z,0.84
2017-03-18T00:21:27.195Z,0.78
2017-03-18T00:22:37.141Z,0.84
2017-03-18T00:23:47.398Z,0.82
2017-03-18T00:24:57.659Z,0.74
2017-03-18T00:26:07.599Z,0.7
2017-03-18T00:27:17.536Z,0.77
2017-03-18T00:28:27.791Z,0.74
2017-03-18T00:29:38.055Z,0.73
2017-03-18T00:30:47.999Z,0.61
2017-03-18T00:31:57.936Z,0.7
2017-03-18T00:33:08.197Z,0.71
2017-03-18T00:34:18.455Z,0.74
2017-03-18T00:35:28.715Z,0.78
2017-03-18T00:36:38.983Z,0.74
2017-03-18T00:37:48.613Z,0.74
2017-03-18T00:38:58.871Z,0.76
2017-03-18T00:40:09.239Z,0.76
2017-03-18T00:41:19.495Z,0.74
2017-03-18T00:42:29.749Z,0.71
2017-03-18T00:43:40.004Z,0.71
2017-03-18T00:44:50.264Z,0.74
2017-03-18T00:46:00.514Z,0.71
2017-03-18T00:47:10.137Z,0.74
2017-03-18T00:48:20.085Z,0.73
2017-03-18T00:49:30.030Z,0.7
2017-03-18T00:50:40.286Z,0.67
2017-03-18T00:51:50.547Z,0.66
2017-03-18T00:53:00.799Z,0.7
2017-03-18T00:54:11.057Z,0.67
2017-03-18T00:55:21.035Z,0.55
2017-03-18T00:56:30.665Z,0.59
2017-03-18T00:57:40.637Z,0.63
2017-03-18T00:58:50.899Z,0.59
2017-03-18T01:00:01.169Z,0.47
2017-03-18T01:01:10.804Z,0.61
2017-03-18T01:02:21.065Z,0.49
2017-03-18T01:03:31.330Z,0.59
2017-03-18T01:04:40.957Z,0.55
2017-03-18T01:05:51.251Z,0.58
2017-03-18T01:07:01.501Z,0.73
2017-03-18T01:08:11.754Z,0.68
2017-03-18T01:09:21.382Z,0.66
2017-03-18T01:10:31.644Z,0.7
2017-03-18T01:11:41.273Z,0.76
2017-03-18T01:12:51.216Z,0.74
2017-03-18T01:14:01.473Z,0.74
2017-03-18T01:15:11.729Z,0.7
2017-03-18T01:16:21.672Z,0.78
2017-03-18T01:17:31.927Z,0.78
2017-03-18T01:18:41.907Z,0.82
2017-03-18T01:19:52.163Z,0.82
2017-03-18T01:21:02.436Z,0.84
2017-03-18T01:22:12.696Z,0.89
2017-03-18T01:23:22.974Z,0.85
2017-03-18T01:24:33.240Z,0.88
2017-03-18T01:25:43.492Z,0.85
2017-03-18T01:26:53.747Z,0.84
2017-03-18T01:28:04.002Z,0.82
2017-03-18T01:29:13.943Z,0.88
2017-03-18T01:30:24.203Z,0.86
2017-03-18T01:31:34.454Z,0.88
2017-03-18T01:32:44.087Z,0.77
2017-03-18T01:33:54.350Z,0.81
2017-03-18T01:35:04.644Z,0.71
2017-03-18T01:36:14.926Z,0.71
2017-03-18T01:37:24.869Z,0.67
2017-03-18T01:38:34.810Z,0.61
2017-03-18T01:39:45.075Z,0.68
2017-03-18T01:40:55.019Z,0.67
2017-03-18T01:42:05.273Z,0.64
2017-03-18T01:43:14.896Z,0.63
2017-03-18T01:44:25.157Z,0.68
2017-03-18T01:45:35.419Z,0.58
2017-03-18T01:46:45.673Z,0.52
2017-03-18T01:47:55.930Z,0.56
2017-03-18T01:49:06.184Z,0.59
2017-03-18T01:50:16.153Z,0.51
2017-03-18T01:51:26.418Z,0.49
2017-03-18T01:52:36.683Z,0.51
2017-03-18T01:53:46.628Z,0.45
2017-03-18T01:54:56.894Z,0.45
2017-03-18T01:56:07.158Z,0.36
2017-03-18T01:57:17.100Z,0.48
2017-03-18T01:58:27.361Z,0.52
2017-03-18T01:59:37.623Z,0.47
2017-03-18T02:00:47.877Z,0.44
2017-03-18T02:01:58.130Z,0.42
2017-03-18T02:03:08.397Z,0.47
2017-03-18T02:04:18.654Z,0.44
2017-03-18T02:05:28.925Z,0.45
2017-03-18T02:06:38.549Z,0.42
2017-03-18T02:07:48.489Z,0.44
2017-03-18T02:08:58.753Z,0.4
2017-03-18T02:10:09.011Z,0.4
2017-03-18T02:11:18.952Z,0.47
2017-03-18T02:12:29.205Z,0.4
2017-03-18T02:13:39.462Z,0.45
2017-03-18T02:14:49.725Z,0.37
2017-03-18T02:15:59.985Z,0.47
2017-03-18T02:17:10.250Z,0.34
2017-03-18T02:18:20.193Z,0.39
2017-03-18T02:19:30.453Z,0.34
2017-03-18T02:20:40.078Z,0.33
2017-03-18T02:21:50.330Z,0.34
2017-03-18T02:23:00.586Z,0.36
2017-03-18T02:24:10.849Z,0.31
2017-03-18T02:25:20.797Z,0.36
2017-03-18T02:26:31.051Z,0.24
2017-03-18T02:27:41.017Z,0.27
2017-03-18T02:28:51.280Z,0.24
2017-03-18T02:30:01.542Z,0.15
2017-03-18T02:31:11.487Z,0.27
2017-03-18T02:32:21.739Z,0.19
2017-03-18T02:33:31.995Z,0.27
2017-03-18T02:34:42.244Z,0.24
2017-03-18T02:35:52.497Z,0.23
2017-03-18T02:37:03.001Z,0.24
2017-03-18T02:38:12.637Z,0.24
2017-03-18T02:39:22.299Z,0.27
2017-03-18T02:40:32.566Z,0.27
2017-03-18T02:41:42.830Z,0.27
2017-03-18T02:42:53.089Z,0.33
2017-03-18T02:44:03.353Z,0.29
2017-03-18T02:45:13.608Z,0.26
2017-03-18T02:46:23.585Z,0.36
2017-03-18T02:47:33.839Z,0.29
2017-03-18T02:48:43.787Z,0.29
2017-03-18T02:49:54.070Z,0.29
2017-03-18T02:51:04.330Z,0.26
2017-03-18T02:52:14.584Z,0.27
2017-03-18T02:53:24.220Z,0.26
2017-03-18T02:54:34.162Z,0.3
2017-03-18T02:55:44.419Z,0.37
2017-03-18T02:56:54.674Z,0.33
2017-03-18T02:58:04.932Z,0.29
2017-03-18T02:59:14.892Z,0.26
2017-03-18T03:00:26.845Z,0.33
2017-03-18T03:01:37.105Z,0.34
2017-03-18T03:02:47.370Z,0.34
2017-03-18T03:03:57.632Z,0.34
2017-03-18T03:05:07.597Z,0.34
2017-03-18T03:06:17.853Z,0.31
2017-03-18T03:07:28.115Z,0.26
2017-03-18T03:08:38.383Z,0.27
2017-03-18T03:09:48.651Z,0.27
2017-03-18T03:10:58.910Z,0.26
2017-03-18T03:12:08.853Z,0.24
2017-03-18T03:13:19.101Z,0.24
2017-03-18T03:14:29.396Z,0.24
2017-03-18T03:15:39.336Z,0.13
2017-03-18T03:16:49.623Z,0.2
2017-03-18T03:17:59.881Z,0.24
2017-03-18T03:19:10.134Z,0.2
2017-03-18T03:20:20.397Z,0.16
2017-03-18T03:21:30.653Z,0.13
2017-03-18T03:22:40.921Z,0.18
2017-03-18T03:23:51.185Z,0.24
2017-03-18T03:25:01.453Z,0.2
2017-03-18T03:26:11.399Z,0.26
2017-03-18T03:27:21.336Z,0.29
2017-03-18T03:28:31.589Z,0.09
2017-03-18T03:29:41.855Z,0.27
2017-03-18T03:30:51.796Z,0.27
2017-03-18T03:32:02.050Z,0.39
2017-03-18T03:33:11.995Z,0.42
2017-03-18T03:34:22.262Z,0.4
2017-03-18T03:35:32.526Z,0.45
2017-03-18T03:36:42.801Z,0.48
2017-03-18T03:37:52.750Z,0.45
2017-03-18T03:39:03.012Z,0.36
2017-03-18T03:40:13.269Z,0.37
2017-03-18T03:41:22.893Z,0.36
2017-03-18T03:42:33.145Z,0.52
2017-03-18T03:43:43.410Z,0.47
2017-03-18T03:44:53.702Z,0.44
2017-03-18T03:46:03.650Z,0.49
2017-03-18T03:47:13.904Z,0.48
2017-03-18T03:48:24.167Z,0.47
2017-03-18T03:49:34.419Z,0.45
2017-03-18T03:50:44.709Z,0.47
2017-03-18T03:51:54.962Z,0.47
2017-03-18T03:53:05.218Z,0.47
2017-03-18T03:54:15.477Z,0.3
2017-03-18T03:55:25.427Z,0.42
2017-03-18T03:56:35.678Z,0.39
2017-03-18T03:57:45.306Z,0.34
2017-03-18T03:58:55.571Z,0.33
2017-03-18T04:00:05.514Z,0.3
2017-03-18T04:01:15.462Z,0.29
2017-03-18T04:02:25.091Z,0.26
2017-03-18T04:03:35.351Z,0.24
2017-03-18T04:04:45.613Z,0.16
2017-03-18T04:05:55.864Z,0.15
2017-03-18T04:07:06.140Z,0.13
2017-03-18T04:08:16.080Z,0.15
2017-03-18T04:09:26.024Z,0.24
2017-03-18T04:10:36.274Z,0.11
2017-03-18T04:11:46.535Z,0.06
2017-03-18T04:12:56.481Z,0.11
2017-03-18T04:14:06.761Z,0.05
2017-03-18T04:15:16.735Z,0
2017-03-18T04:16:26.991Z,0.05
2017-03-18T04:17:37.248Z,0.12
2017-03-18T04:18:47.517Z,0.09
2017-03-18T04:19:57.789Z,0.02
2017-03-18T04:21:08.046Z,0.05
2017-03-18T04:22:18.297Z,0.01
2017-03-18T04:23:28.248Z,0.02
2017-03-18T04:24:38.509Z,-0.05
2017-03-18T04:25:48.772Z,-0.05
2017-03-18T04:26:58.722Z,0.05
2017-03-18T04:28:08.352Z,0.05
2017-03-18T04:29:18.613Z,0
2017-03-18T04:30:28.555Z,-0.02
2017-03-18T04:31:38.504Z,-0.07
2017-03-18T04:32:48.767Z,0.02
2017-03-18T04:33:59.027Z,0.09
2017-03-18T04:35:09.280Z,0.13
2017-03-18T04:36:19.533Z,-0.02
2017-03-18T04:37:29.471Z,0.08
2017-03-18T04:38:39.733Z,0.12
2017-03-18T04:39:49.991Z,0.11
2017-03-18T04:41:00.249Z,0.11
2017-03-18T04:42:10.512Z,0.06
2017-03-18T04:43:20.456Z,0.19
2017-03-18T04:44:30.433Z,0.11
2017-03-18T04:45:40.691Z,0.18
2017-03-18T04:46:50.943Z,0.23
2017-03-18T04:48:00.885Z,0.24
2017-03-18T04:49:11.141Z,0.29
2017-03-18T04:50:21.091Z,0.31
2017-03-18T04:51:30.717Z,0.33
2017-03-18T04:52:40.970Z,0.33
2017-03-18T04:53:50.919Z,0.44
2017-03-18T04:55:01.224Z,0.45
2017-03-18T04:56:11.159Z,0.44
2017-03-18T04:57:21.098Z,0.48
2017-03-18T04:58:31.359Z,0.48
2017-03-18T04:59:41.618Z,0.47
2017-03-18T05:00:51.870Z,0.52
2017-03-18T05:02:01.813Z,0.49
2017-03-18T05:03:12.077Z,0.49
2017-03-18T05:04:22.026Z,0.49
2017-03-18T05:05:32.279Z,0.49
2017-03-18T05:06:42.538Z,0.37
2017-03-18T05:07:52.788Z,0.55
2017-03-18T05:09:03.059Z,0.51
2017-03-18T05:10:13.313Z,0.48
2017-03-18T05:11:23.564Z,0.44
2017-03-18T05:12:33.506Z,0.45
2017-03-18T05:13:43.773Z,0.47
2017-03-18T05:14:54.031Z,0.33
2017-03-18T05:16:04.303Z,0.44
2017-03-18T05:17:14.234Z,0.36
2017-03-18T05:18:24.177Z,0.33
2017-03-18T05:19:34.441Z,0.36
2017-03-18T05:20:44.700Z,0.37
2017-03-18T05:21:54.954Z,0.31
2017-03-18T05:23:05.215Z,0.3
2017-03-18T05:24:15.160Z,0.34
2017-03-18T05:25:25.413Z,0.26
2017-03-18T05:26:35.671Z,0.27
2017-03-18T05:27:45.967Z,0.2
2017-03-18T05:28:56.230Z,0.2
2017-03-18T05:30:06.486Z,0.26
2017-03-18T05:31:16.426Z,0.29
2017-03-18T05:32:26.050Z,0.23
2017-03-18T05:33:36.317Z,0.15
2017-03-18T05:34:46.577Z,0.18
2017-03-18T05:35:56.838Z,0.15
2017-03-18T05:37:07.105Z,0.18
2017-03-18T05:38:17.356Z,0.18
2017-03-18T05:39:27.616Z,0.15
2017-03-18T05:40:37.875Z,0.19
2017-03-18T05:41:48.138Z,0.16
2017-03-18T05:42:58.394Z,0.08
2017-03-18T05:44:08.345Z,0.13
2017-03-18T05:45:18.602Z,0.15
2017-03-18T05:46:28.567Z,0.13
2017-03-18T05:47:38.864Z,0.09
2017-03-18T05:48:49.127Z,0.11
2017-03-18T05:49:59.443Z,0.11
2017-03-18T05:51:09.385Z,0.19
2017-03-18T05:52:19.320Z,0.15
2017-03-18T05:53:28.949Z,0.15
2017-03-18T05:54:38.895Z,0.18
2017-03-18T05:55:49.197Z,0.2
2017-03-18T05:56:59.460Z,0.23
2017-03-18T05:58:09.411Z,0.2
2017-03-18T05:59:19.362Z,0.16
2017-03-18T06:00:29.337Z,0.2
2017-03-18T06:01:39.273Z,0.19
2017-03-18T06:02:49.530Z,0.11
2017-03-18T06:03:59.482Z,0.09
2017-03-18T06:05:09.737Z,0.09
2017-03-18T06:06:19.992Z,-0.03
2017-03-18T06:07:29.935Z,0.08
2017-03-18T06:08:40.197Z,0.02
2017-03-18T06:09:50.464Z,0.05
2017-03-18T06:11:00.716Z,-0.02
2017-03-18T06:12:10.966Z,0.11
2017-03-18T06:13:21.239Z,-0.03
2017-03-18T06:14:31.499Z,0.01
2017-03-18T06:15:41.441Z,0.01
2017-03-18T06:16:51.697Z,0.08
2017-03-18T06:18:01.649Z,0.11
2017-03-18T06:19:11.916Z,0.09
2017-03-18T06:20:22.189Z,0.05
2017-03-18T06:21:32.443Z,0.05
2017-03-18T06:22:42.077Z,0.06
2017-03-18T06:23:52.337Z,0.12
2017-03-18T06:25:02.000Z,0.12
2017-03-18T06:26:11.945Z,0.06
2017-03-18T06:27:21.879Z,0.12
2017-03-18T06:28:31.823Z,0.08
2017-03-18T06:29:42.080Z,0.13
2017-03-18T06:30:52.338Z,0.18
2017-03-18T06:32:02.593Z,0.19
2017-03-18T06:33:12.566Z,0.13
2017-03-18T06:34:22.827Z,0.15
2017-03-18T06:35:32.454Z,0.27
2017-03-18T06:36:42.710Z,0.34
2017-03-18T06:37:52.970Z,0.45
2017-03-18T06:39:02.912Z,0.51
2017-03-18T06:40:13.171Z,0.59
2017-03-18T06:41:23.431Z,0.59
2017-03-18T06:42:33.373Z,0.73
2017-03-18T06:43:43.645Z,0.68
2017-03-18T06:44:53.907Z,0.82
2017-03-18T06:46:04.169Z,0.92
2017-03-18T06:47:14.418Z,1.03
2017-03-18T06:48:24.673Z,0.96
2017-03-18T06:49:34.622Z,1.07
2017-03-18T06:50:44.871Z,1
2017-03-18T06:51:54.504Z,1.21
2017-03-18T06:53:04.775Z,1.2
2017-03-18T06:54:15.037Z,1.34
2017-03-18T06:55:25.299Z,1.34
2017-03-18T06:56:35.549Z,1.48
2017-03-18T06:57:45.491Z,1.52
2017-03-18T06:58:55.127Z,1.57
2017-03-18T07:00:05.402Z,1.46
2017-03-18T07:01:15.345Z,1.42
2017-03-18T07:02:25.294Z,1.28
2017-03-18T07:03:35.235Z,1.32
2017-03-18T07:04:45.490Z,1.43
2017-03-18T07:05:55.742Z,1.52
2017-03-18T07:07:06.003Z,1.49
2017-03-18T07:08:16.261Z,1.57
2017-03-18T07:09:26.206Z,1.6
2017-03-18T07:10:36.461Z,1.57
2017-03-18T07:11:46.728Z,1.56
2017-03-18T07:12:57.003Z,1.63
2017-03-18T07:14:06.975Z,1.63
2017-03-18T07:15:17.228Z,1.58
2017-03-18T07:16:26.859Z,1.64
2017-03-18T07:17:36.800Z,1.67
2017-03-18T07:18:47.052Z,1.61
2017-03-18T07:19:57.308Z,1.61
2017-03-18T07:21:07.571Z,1.76
2017-03-18T07:22:17.830Z,1.71
2017-03-18T07:23:30.193Z,1.76
2017-03-18T07:24:40.137Z,1.71
2017-03-18T07:25:50.079Z,1.81
2017-03-18T07:27:00.339Z,1.89
2017-03-18T07:28:10.599Z,1.84
2017-03-18T07:29:20.895Z,1.95
2017-03-18T07:30:31.160Z,2.01
2017-03-18T07:31:41.107Z,2.03
2017-03-18T07:32:51.365Z,2.07
2017-03-18T07:34:01.621Z,2.1
2017-03-18T07:35:11.879Z,2.22
2017-03-18T07:36:22.136Z,2.25
2017-03-18T07:37:32.395Z,2.25
2017-03-18T07:38:42.027Z,2.26
2017-03-18T07:39:52.286Z,2.32
2017-03-18T07:41:02.548Z,2.4
2017-03-18T07:42:12.799Z,2.34
2017-03-18T07:43:23.059Z,2.23
2017-03-18T07:44:33.005Z,2.34
2017-03-18T07:45:43.269Z,2.41
2017-03-18T07:46:53.520Z,2.46
2017-03-18T07:48:03.780Z,2.5
2017-03-18T07:49:14.045Z,2.58
2017-03-18T07:50:24.306Z,2.58
2017-03-18T07:51:34.247Z,2.55
2017-03-18T07:52:44.503Z,2.59
2017-03-18T07:53:54.139Z,2.68
2017-03-18T07:55:04.402Z,2.68
2017-03-18T07:56:14.670Z,2.76
2017-03-18T07:57:24.936Z,2.75
2017-03-18T07:58:35.203Z,2.91
2017-03-18T07:59:45.469Z,2.85
2017-03-18T08:00:55.724Z,2.88
2017-03-18T08:02:05.991Z,2.9
2017-03-18T08:03:15.946Z,2.95
2017-03-18T08:04:25.893Z,2.93
2017-03-18T08:05:35.840Z,2.98
2017-03-18T08:06:45.785Z,2.98
2017-03-18T08:07:56.050Z,3.08
2017-03-18T08:09:06.005Z,3.16
2017-03-18T08:10:16.277Z,3.26
2017-03-18T08:11:26.227Z,3.26
2017-03-18T08:12:36.481Z,3.36
2017-03-18T08:13:46.433Z,3.37
2017-03-18T08:14:56.698Z,3.45
2017-03-18T08:16:06.957Z,3.45
2017-03-18T08:17:17.216Z,3.33
2017-03-18T08:18:27.162Z,3.3
2017-03-18T08:19:36.799Z,3.33
2017-03-18T08:20:47.071Z,3.36
2017-03-18T08:21:57.332Z,3.33
2017-03-18T08:23:06.964Z,3.21
2017-03-18T08:24:17.238Z,3.27
2017-03-18T08:25:27.196Z,3.27
2017-03-18T08:26:37.141Z,3.3
2017-03-18T08:27:47.406Z,3.3
2017-03-18T08:28:57.667Z,3.34
2017-03-18T08:30:07.610Z,3.43
2017-03-18T08:31:17.865Z,3.48
2017-03-18T08:32:28.121Z,3.49
2017-03-18T08:33:38.394Z,3.46
2017-03-18T08:34:48.659Z,3.45
2017-03-18T08:35:58.604Z,3.52
2017-03-18T08:37:08.548Z,3.5
2017-03-18T08:38:18.809Z,3.56
2017-03-18T08:39:28.764Z,3.61
2017-03-18T08:40:38.741Z,3.61
2017-03-18T08:41:48.699Z,3.68
2017-03-18T08:42:58.955Z,3.58
2017-03-18T08:44:09.217Z,3.52
2017-03-18T08:45:19.173Z,3.48
2017-03-18T08:46:29.430Z,3.53
2017-03-18T08:47:39.696Z,3.48
2017-03-18T08:48:49.971Z,3.34
2017-03-18T08:50:00.234Z,3.18
2017-03-18T08:51:10.189Z,3.06
2017-03-18T08:52:20.449Z,3.13
2017-03-18T08:53:30.707Z,3.06
2017-03-18T08:54:40.969Z,3.03
2017-03-18T08:55:51.234Z,2.97
2017-03-18T08:57:01.492Z,3.03
2017-03-18T08:58:11.760Z,2.77
2017-03-18T08:59:22.025Z,2.79
2017-03-18T09:00:32.294Z,2.7
2017-03-18T09:01:42.544Z,2.61
2017-03-18T09:02:52.809Z,2.72
2017-03-18T09:04:03.075Z,2.75
2017-03-18T09:05:13.338Z,2.7
2017-03-18T09:06:23.593Z,2.64
2017-03-18T09:07:33.541Z,2.55
2017-03-18T09:08:42.865Z,2.64
2017-03-18T09:09:52.844Z,2.7
2017-03-18T09:11:02.795Z,2.75
2017-03-18T09:12:13.056Z,2.69
2017-03-18T09:13:22.691Z,2.68
2017-03-18T09:14:32.641Z,2.59
2017-03-18T09:15:42.620Z,2.68
2017-03-18T09:16:52.558Z,2.64
2017-03-18T09:18:02.818Z,2.69
2017-03-18T09:19:13.088Z,2.79
2017-03-18T09:20:23.076Z,2.69
2017-03-18T09:21:33.329Z,2.69
2017-03-18T09:22:43.586Z,2.68
2017-03-18T09:23:53.853Z,2.68
2017-03-18T09:25:04.121Z,2.61
2017-03-18T09:26:14.377Z,2.62
2017-03-18T09:27:24.318Z,2.68
2017-03-18T09:28:34.604Z,2.75
2017-03-18T09:29:44.553Z,2.76
2017-03-18T09:30:54.820Z,2.75
2017-03-18T09:32:04.766Z,2.83
2017-03-18T09:33:15.028Z,2.91
2017-03-18T09:34:24.985Z,2.98
2017-03-18T09:35:35.254Z,3
2017-03-18T09:36:45.507Z,2.88
2017-03-18T09:37:55.765Z,2.93
2017-03-18T09:39:05.707Z,2.87
2017-03-18T09:40:15.971Z,2.88
2017-03-18T09:41:26.231Z,2.79
2017-03-18T09:42:35.547Z,2.76
2017-03-18T09:43:45.503Z,2.8
2017-03-18T09:44:55.761Z,2.73
2017-03-18T09:46:06.025Z,2.72
2017-03-18T09:47:15.986Z,2.75
2017-03-18T09:48:25.946Z,2.77
2017-03-18T09:49:35.904Z,2.9
2017-03-18T09:50:46.166Z,2.8
2017-03-18T09:51:56.421Z,2.73
2017-03-18T09:53:06.369Z,2.72
2017-03-18T09:54:16.633Z,2.73
2017-03-18T09:55:26.889Z,2.79
2017-03-18T09:56:37.144Z,2.76
2017-03-18T09:57:47.407Z,2.76
2017-03-18T09:58:57.366Z,2.9
2017-03-18T10:00:07.326Z,2.88
2017-03-18T10:01:17.269Z,2.94
2017-03-18T10:02:27.522Z,2.98
2017-03-18T10:03:37.467Z,2.94
2017-03-18T10:04:47.720Z,3.05
2017-03-18T10:05:57.673Z,3.05
2017-03-18T10:07:07.940Z,3.11
2017-03-18T10:08:17.878Z,3.18
2017-03-18T10:09:28.139Z,3.26
2017-03-18T10:10:38.401Z,3.16
2017-03-18T10:11:48.657Z,3.15
2017-03-18T10:12:58.918Z,3.09
2017-03-18T10:14:09.186Z,3.18
2017-03-18T10:15:19.449Z,3.15
2017-03-18T10:16:29.712Z,3.15
2017-03-18T10:17:39.967Z,3.24
2017-03-18T10:18:50.232Z,3.26
2017-03-18T10:20:00.183Z,3.24
2017-03-18T10:21:10.447Z,3.31
2017-03-18T10:22:20.383Z,3.37
2017-03-18T10:23:30.018Z,3.41
2017-03-18T10:24:39.981Z,3.48
2017-03-18T10:25:50.241Z,3.48
2017-03-18T10:27:00.229Z,3.43
2017-03-18T10:28:10.171Z,3.4
2017-03-18T10:29:20.429Z,3.46
2017-03-18T10:30:30.693Z,3.36
2017-03-18T10:31:40.642Z,3.31
2017-03-18T10:32:50.582Z,3.34
2017-03-18T10:34:00.900Z,3.46
2017-03-18T10:35:11.165Z,3.43
2017-03-18T10:36:21.422Z,3.43
2017-03-18T10:37:31.677Z,3.52
2017-03-18T10:38:41.940Z,3.53
2017-03-18T10:39:51.578Z,3.55
2017-03-18T10:41:01.885Z,3.56
2017-03-18T10:42:12.144Z,3.64
2017-03-18T10:43:22.091Z,3.74
2017-03-18T10:44:32.038Z,3.7
2017-03-18T10:45:42.302Z,3.68
2017-03-18T10:46:52.557Z,3.59
2017-03-18T10:48:02.820Z,3.68
2017-03-18T10:49:13.080Z,3.67
2017-03-18T10:50:23.348Z,3.63
2017-03-18T10:51:33.606Z,3.81
2017-03-18T10:52:43.875Z,3.81
2017-03-18T10:53:54.135Z,3.91
2017-03-18T10:55:04.398Z,3.94
2017-03-18T10:56:14.698Z,3.91
2017-03-18T10:57:24.987Z,4
2017-03-18T10:58:35.243Z,4
2017-03-18T10:59:45.198Z,4.02
2017-03-18T11:00:55.461Z,4.09
2017-03-18T11:02:05.406Z,4.18
2017-03-18T11:03:15.661Z,4.38
2017-03-18T11:04:25.928Z,4.42
2017-03-18T11:05:35.868Z,4.4
2017-03-18T11:06:45.497Z,4.42
2017-03-18T11:07:55.451Z,4.36
2017-03-18T11:09:05.710Z,4.32
2017-03-18T11:10:15.655Z,4.34
2017-03-18T11:11:25.915Z,4.49
2017-03-18T11:12:36.175Z,4.75
2017-03-18T11:13:46.442Z,4.94
2017-03-18T11:14:56.705Z,5.36
2017-03-18T11:16:06.975Z,5.65
2017-03-18T11:17:17.235Z,5.91
2017-03-18T11:18:27.188Z,6.44
2017-03-18T11:19:37.451Z,6.34
2017-03-18T11:20:47.715Z,6.2
2017-03-18T11:21:57.976Z,6.15
2017-03-18T11:23:08.244Z,5.95
2017-03-18T11:24:18.516Z,6.31
2017-03-18T11:25:28.467Z,6.87
2017-03-18T11:26:38.734Z,7.07
2017-03-18T11:27:48.691Z,6.92
2017-03-18T11:28:58.958Z,6.44
2017-03-18T11:30:08.909Z,6.12
2017-03-18T11:31:18.877Z,5.73
2017-03-18T11:32:29.143Z,5.65
2017-03-18T11:33:39.414Z,5.61
2017-03-18T11:34:49.371Z,5.43
2017-03-18T11:35:59.635Z,5.34
2017-03-18T11:37:09.892Z,5.28
2017-03-18T11:38:20.197Z,5.25
2017-03-18T11:39:30.460Z,5.19
2017-03-18T11:40:40.409Z,5.2
2017-03-18T11:41:50.674Z,5
2017-03-18T11:43:00.936Z,4.95
2017-03-18T11:44:10.881Z,4.95
2017-03-18T11:45:21.147Z,5.31
2017-03-18T11:46:31.097Z,5.41
2017-03-18T11:47:40.733Z,5.74
2017-03-18T11:48:50.682Z,5.84
2017-03-18T11:50:00.635Z,6.35
2017-03-18T11:51:10.275Z,6.53
2017-03-18T11:52:20.536Z,6.74
2017-03-18T11:53:30.805Z,7.01
2017-03-18T11:54:41.067Z,7.15
2017-03-18T11:55:51.331Z,7.37
2017-03-18T11:57:01.288Z,7.39
2017-03-18T11:58:11.559Z,7.69
2017-03-18T11:59:21.831Z,8.36
2017-03-18T12:00:32.106Z,8.61
2017-03-18T12:01:42.393Z,8.72
2017-03-18T12:02:52.030Z,8.86
2017-03-18T12:04:02.303Z,8.54
2017-03-18T12:05:11.940Z,8.54
2017-03-18T12:06:22.226Z,8.77
2017-03-18T12:07:31.589Z,8.72
2017-03-18T12:08:41.862Z,8.52
2017-03-18T12:09:52.137Z,8.34
2017-03-18T12:11:02.412Z,8.42
2017-03-18T12:12:12.681Z,8.45
2017-03-18T12:13:22.645Z,8.69
2017-03-18T12:14:32.919Z,8.78
2017-03-18T12:15:45.198Z,8.49
2017-03-18T12:16:55.464Z,8.5
2017-03-18T12:18:05.423Z,8.53
2017-03-18T12:19:15.382Z,8.78
2017-03-18T12:20:25.700Z,8.93
2017-03-18T12:21:35.971Z,9.27
2017-03-18T12:22:46.252Z,9.27
2017-03-18T12:23:56.211Z,9.64
2017-03-18T12:25:06.169Z,10.2
2017-03-18T12:26:16.436Z,10.42
2017-03-18T12:27:26.708Z,10.09
2017-03-18T12:28:36.664Z,10.42
2017-03-18T12:29:46.633Z,10.62
2017-03-18T12:30:56.591Z,10.51
2017-03-18T12:32:06.545Z,10.05
2017-03-18T12:33:16.829Z,9.44
2017-03-18T12:34:27.107Z,9.3
2017-03-18T12:35:37.378Z,9.19
2017-03-18T12:36:47.341Z,9.37
2017-03-18T12:37:56.991Z,9.34
2017-03-18T12:39:06.959Z,9.31
2017-03-18T12:40:17.246Z,9.09
2017-03-18T12:41:27.517Z,9.13
2017-03-18T12:42:37.782Z,9.52
2017-03-18T12:43:47.122Z,9.92
2017-03-18T12:44:57.412Z,10.69
2017-03-18T12:46:07.375Z,11.12
2017-03-18T12:47:17.652Z,10.72
2017-03-18T12:48:27.646Z,10.24
2017-03-18T12:49:37.611Z,11
2017-03-18T12:50:47.575Z,11.07
2017-03-18T12:51:57.853Z,10.61
2017-03-18T12:53:07.810Z,10.67
2017-03-18T12:54:17.773Z,10.77
2017-03-18T12:55:27.731Z,11.08
2017-03-18T12:56:38.003Z,11.49
2017-03-18T12:57:48.280Z,11.49
2017-03-18T12:58:58.250Z,11.89
2017-03-18T13:00:08.210Z,12.14
2017-03-18T13:01:18.483Z,11.74
2017-03-18T13:02:28.762Z,10.77
2017-03-18T13:03:38.723Z,10.48
2017-03-18T13:04:48.996Z,9.95
2017-03-18T13:05:59.010Z,10.24
2017-03-18T13:07:08.654Z,10.38
2017-03-18T13:08:18.933Z,10.62
2017-03-18T13:09:29.222Z,10.53
2017-03-18T13:10:38.870Z,10.15
2017-03-18T13:11:49.147Z,10.49
2017-03-18T13:12:59.115Z,11.05
2017-03-18T13:14:09.397Z,11.23
2017-03-18T13:15:19.707Z,10.9
2017-03-18T13:16:29.986Z,10.69
2017-03-18T13:17:39.943Z,9.91
2017-03-18T13:18:49.914Z,9.94
2017-03-18T13:19:59.880Z,9.77
2017-03-18T13:21:10.156Z,9.64
2017-03-18T13:22:20.118Z,9.64
2017-03-18T13:23:30.081Z,9.45
2017-03-18T13:24:40.044Z,9.94
2017-03-18T13:25:50.356Z,10.1
2017-03-18T13:27:00.657Z,10.1
2017-03-18T13:28:10.615Z,10.05
2017-03-18T13:29:20.586Z,9.92
2017-03-18T13:30:30.550Z,9.56
2017-03-18T13:31:40.512Z,9.47
2017-03-18T13:32:50.485Z,9.21
2017-03-18T13:34:00.760Z,9.31
2017-03-18T13:35:10.721Z,9.29
2017-03-18T13:36:21.018Z,9.31
2017-03-18T13:37:31.286Z,9.13
2017-03-18T13:38:41.564Z,8.75
2017-03-18T13:39:51.842Z,7.84
2017-03-18T13:41:01.815Z,7.53
2017-03-18T13:42:11.769Z,7.29
2017-03-18T13:43:21.830Z,7.28
2017-03-18T13:44:32.101Z,7.01
2017-03-18T13:45:42.361Z,7.08
2017-03-18T13:46:52.624Z,7.14
2017-03-18T13:48:02.886Z,6.93
2017-03-18T13:49:16.416Z,7.15
2017-03-18T13:50:26.372Z,7.11
2017-03-18T13:51:36.641Z,7.21
2017-03-18T13:52:46.909Z,7.07
2017-03-18T13:53:56.878Z,6.78
2017-03-18T13:55:06.830Z,6.64
2017-03-18T13:56:16.786Z,6.62
2017-03-18T13:57:27.050Z,6.77
2017-03-18T13:58:37.007Z,6.74
2017-03-18T13:59:47.287Z,6.95
2017-03-18T14:00:57.554Z,7.11
2017-03-18T14:02:07.505Z,7.13
2017-03-18T14:03:17.775Z,7.14
2017-03-18T14:04:28.043Z,7.14
2017-03-18T14:05:38.309Z,7.08
2017-03-18T14:06:48.256Z,7.03
2017-03-18T14:07:58.535Z,6.96
2017-03-18T14:09:08.522Z,6.96
2017-03-18T14:10:18.790Z,6.97
2017-03-18T14:11:28.760Z,6.72
2017-03-18T14:12:39.029Z,6.75
2017-03-18T14:13:49.299Z,6.97
2017-03-18T14:14:59.568Z,7.11
2017-03-18T14:16:09.528Z,7.48
2017-03-18T14:17:19.816Z,7.66
2017-03-18T14:18:30.383Z,7.64
2017-03-18T14:19:40.658Z,7.58
2017-03-18T14:20:50.958Z,7.74
2017-03-18T14:22:01.225Z,7.37
2017-03-18T14:23:10.859Z,7.25
2017-03-18T14:24:21.133Z,7.33
2017-03-18T14:25:31.398Z,7.28
2017-03-18T14:26:41.657Z,7.18
2017-03-18T14:27:51.605Z,7.59
2017-03-18T14:29:01.555Z,7.88
2017-03-18T14:30:11.820Z,8.05
2017-03-18T14:31:22.091Z,8.24
2017-03-18T14:32:32.064Z,8.18
2017-03-18T14:33:42.336Z,8.08
2017-03-18T14:34:52.610Z,7.98
2017-03-18T14:36:02.874Z,8.09
2017-03-18T14:37:12.823Z,7.81
2017-03-18T14:38:23.123Z,8.23
2017-03-18T14:39:33.075Z,8.84
2017-03-18T14:40:43.030Z,9.44
2017-03-18T14:41:52.976Z,9.52
2017-03-18T14:43:02.929Z,9.56
2017-03-18T14:44:13.199Z,9.81
2017-03-18T14:45:23.160Z,10.27
2017-03-18T14:46:33.109Z,10.03
2017-03-18T14:47:43.056Z,10.17
2017-03-18T14:48:53.339Z,10.27
2017-03-18T14:50:03.656Z,10.53
2017-03-18T14:51:13.614Z,10.68
2017-03-18T14:52:23.886Z,10.98
2017-03-18T14:53:34.154Z,11.41
2017-03-18T14:54:44.114Z,11.53
2017-03-18T14:55:54.068Z,11.71
2017-03-18T14:57:04.018Z,12.1
2017-03-18T14:58:14.294Z,12.26
2017-03-18T14:59:24.561Z,11.6
2017-03-18T15:00:34.830Z,11.45
2017-03-18T15:01:45.110Z,11.48
2017-03-18T15:02:55.376Z,11.68
2017-03-18T15:04:05.333Z,12.21
2017-03-18T15:05:15.291Z,12.11
2017-03-18T15:06:25.567Z,12.39
2017-03-18T15:07:35.529Z,12.3
2017-03-18T15:08:45.803Z,12.44
2017-03-18T15:09:56.084Z,12.3
2017-03-18T15:11:06.040Z,12.55
2017-03-18T15:12:16.000Z,12.35
2017-03-18T15:13:26.272Z,12.23
2017-03-18T15:14:36.552Z,12.47
2017-03-18T15:15:46.828Z,12.62
2017-03-18T15:16:57.100Z,12.76
2017-03-18T15:18:06.427Z,12.81
2017-03-18T15:19:16.695Z,12.5
2017-03-18T15:20:26.962Z,12.57
2017-03-18T15:21:37.229Z,12.5
2017-03-18T15:22:47.505Z,12.9
2017-03-18T15:23:57.467Z,13.27
2017-03-18T15:25:07.425Z,13.57
2017-03-18T15:26:17.690Z,13.46
2017-03-18T15:27:27.963Z,13.3
2017-03-18T15:28:37.609Z,13.47
2017-03-18T15:29:47.879Z,13.28
2017-03-18T15:30:57.837Z,13.33
2017-03-18T15:32:08.103Z,13.3
2017-03-18T15:33:17.747Z,13.46